createdAt,value
2019-02-07T00:01:37.844Z,98401.66
2019-02-07T00:04:09.940Z,98390.86
2019-02-07T00:06:41.961Z,98383.70
2019-02-07T00:09:13.981Z,98368.83
2019-02-07T00:11:45.981Z,98369.75
2019-02-07T00:14:56.876Z,98360.86
2019-02-07T00:17:28.931Z,98359.46
2019-02-07T00:20:00.919Z,98353.89
2019-02-07T00:22:32.943Z,98351.72
2019-02-07T00:25:45.790Z,98351.27
2019-02-07T00:28:17.848Z,98344.63
2019-02-07T00:30:49.853Z,98336.93
2019-02-07T00:33:41.326Z,98341.46
2019-02-07T00:36:13.305Z,98333.45
2019-02-07T00:38:45.305Z,98325.75
2019-02-07T00:41:17.310Z,98322.39
2019-02-07T00:43:49.303Z,98318.11
2019-02-07T00:46:21.294Z,98313.28
2019-02-07T00:48:53.280Z,98307.02
2019-02-07T00:51:25.256Z,98307.17
2019-02-07T00:53:57.265Z,98301.67
2019-02-07T00:56:29.250Z,98300.20
2019-02-07T00:59:01.282Z,98304.30
2019-02-07T01:01:33.269Z,98302.70
2019-02-07T01:04:05.284Z,98298.80
2019-02-07T01:06:37.239Z,98302.89
2019-02-07T01:09:11.177Z,98290.32
2019-02-07T01:11:43.150Z,98298.25
2019-02-07T01:14:15.148Z,98305.21
2019-02-07T01:16:47.159Z,98305.03
2019-02-07T01:19:19.153Z,98307.87
2019-02-07T01:21:53.011Z,98302.48
2019-02-07T01:24:25.017Z,98299.09
2019-02-07T01:26:57.012Z,98296.41
2019-02-07T01:29:29.164Z,98294.05
2019-02-07T01:32:01.133Z,98285.05
2019-02-07T01:34:33.366Z,98289.36
2019-02-07T01:37:05.341Z,98289.18
2019-02-07T01:39:37.470Z,98288.29
2019-02-07T01:42:09.443Z,98288.95
2019-02-07T01:44:41.498Z,98289.18
2019-02-07T01:47:13.490Z,98285.48
2019-02-07T01:49:45.495Z,98285.83
2019-02-07T01:52:17.484Z,98290.84
2019-02-07T01:54:49.477Z,98285.83
2019-02-07T01:57:21.470Z,98271.92
2019-02-07T01:59:53.471Z,98280.59
2019-02-07T02:02:25.454Z,98279.00
2019-02-07T02:05:38.279Z,98261.97
2019-02-07T02:08:10.353Z,98261.13
2019-02-07T02:10:42.369Z,98266.80
2019-02-07T02:13:14.340Z,98266.62
2019-02-07T02:15:46.349Z,98265.03
2019-02-07T02:18:18.327Z,98258.77
2019-02-07T02:20:50.295Z,98259.17
2019-02-07T02:23:22.256Z,98250.95
2019-02-07T02:25:54.219Z,98249.55
2019-02-07T02:28:26.275Z,98232.56
2019-02-07T02:30:58.258Z,98229.87
2019-02-07T02:33:30.248Z,98228.47
2019-02-07T02:36:02.221Z,98230.57
2019-02-07T02:41:12.319Z,98226.52
2019-02-07T02:43:44.304Z,98220.11
2019-02-07T02:46:16.334Z,98221.39
2019-02-07T02:48:48.319Z,98219.22
2019-02-07T02:51:20.275Z,98221.57
2019-02-07T02:56:32.316Z,98217.58
2019-02-07T02:59:45.215Z,98213.45
2019-02-07T03:02:36.742Z,98206.98
2019-02-07T03:05:28.385Z,98200.38
2019-02-07T03:08:07.692Z,98207.20
2019-02-07T03:10:48.949Z,98211.69
2019-02-07T03:13:40.473Z,98212.20
2019-02-07T03:16:31.973Z,98205.79
2019-02-07T03:19:13.510Z,98203.98
2019-02-07T03:22:05.049Z,98200.38
2019-02-07T03:24:53.632Z,98202.37
2019-02-07T03:27:45.185Z,98202.95
2019-02-07T03:30:36.736Z,98195.77
2019-02-07T03:33:28.298Z,98192.53
2019-02-07T03:36:19.820Z,98195.77
2019-02-07T03:39:11.383Z,98184.50
2019-02-07T03:42:02.912Z,98194.86
2019-02-07T03:44:54.586Z,98190.42
2019-02-07T03:47:46.175Z,98187.92
2019-02-07T03:50:37.732Z,98184.96
2019-02-07T03:53:33.306Z,98187.13
2019-02-07T03:56:12.505Z,98184.84
2019-02-07T03:59:04.042Z,98179.28
2019-02-07T04:01:55.614Z,98168.23
2019-02-07T04:04:47.151Z,98174.09
2019-02-07T04:07:38.662Z,98168.75
2019-02-07T04:10:30.312Z,98169.61
2019-02-07T04:13:43.198Z,98154.95
2019-02-07T04:16:34.835Z,98156.55
2019-02-07T04:19:26.368Z,98149.70
2019-02-07T04:22:17.898Z,98142.89
2019-02-07T04:25:09.429Z,98145.30
2019-02-07T04:28:00.966Z,98138.47
2019-02-07T04:30:41.973Z,98128.28
2019-02-07T04:33:33.499Z,98122.69
2019-02-07T04:36:25.048Z,98117.90
2019-02-07T04:39:16.594Z,98127.94
2019-02-07T04:42:08.128Z,98128.45
2019-02-07T04:45:19.093Z,98129.95
2019-02-07T04:48:10.662Z,98133.64
2019-02-07T04:51:02.203Z,98132.23
2019-02-07T04:53:53.772Z,98127.08
2019-02-07T04:56:45.317Z,98119.05
2019-02-07T04:59:36.863Z,98111.36
2019-02-07T05:02:28.403Z,98126.90
2019-02-07T05:05:19.909Z,98116.49
2019-02-07T05:08:11.455Z,98131.42
2019-02-07T05:11:03.015Z,98123.00
2019-02-07T05:13:54.563Z,98119.94
2019-02-07T05:16:46.130Z,98111.19
2019-02-07T05:19:37.695Z,98118.36
2019-02-07T05:22:29.384Z,98119.36
2019-02-07T05:25:20.990Z,98113.88
2019-02-07T05:28:12.521Z,98110.82
2019-02-07T05:31:04.123Z,98111.00
2019-02-07T05:33:55.646Z,98117.85
2019-02-07T05:36:47.186Z,98117.27
2019-02-07T05:42:39.799Z,98107.61
2019-02-07T05:45:34.180Z,98108.13
2019-02-07T05:48:41.134Z,98107.98
2019-02-07T05:51:35.535Z,98114.98
2019-02-07T05:54:29.871Z,98108.72
2019-02-07T05:57:24.522Z,98108.20
2019-02-07T06:00:14.690Z,98103.82
2019-02-07T06:03:07.811Z,98096.31
2019-02-07T06:06:08.304Z,98101.58
2019-02-07T06:08:58.544Z,98099.62
2019-02-07T06:11:52.925Z,98097.83
2019-02-07T06:14:43.189Z,98093.15
2019-02-07T06:17:34.789Z,98094.40
2019-02-07T06:20:36.086Z,98100.14
2019-02-07T06:23:27.692Z,98101.54
2019-02-07T06:26:28.575Z,98098.86
2019-02-07T06:29:22.965Z,98096.13
2019-02-07T06:32:29.995Z,98095.61
2019-02-07T06:35:36.514Z,98094.65
2019-02-07T06:38:26.677Z,98108.28
2019-02-07T06:41:33.597Z,98104.84
2019-02-07T06:44:23.627Z,98103.27
2019-02-07T06:47:13.419Z,98094.03
2019-02-07T06:50:09.420Z,98091.78
2019-02-07T06:53:19.159Z,98093.15
2019-02-07T06:56:22.505Z,98082.62
2019-02-07T06:59:13.130Z,98089.61
2019-02-07T07:02:03.853Z,98086.99
2019-02-07T07:05:01.634Z,98102.13
2019-02-07T07:07:52.315Z,98096.41
2019-02-07T07:10:43.869Z,98093.83
2019-02-07T07:13:50.838Z,98092.34
2019-02-07T07:16:32.748Z,98086.64
2019-02-07T07:19:24.442Z,98085.98
2019-02-07T07:22:28.340Z,98089.56
2019-02-07T07:25:18.606Z,98081.81
2019-02-07T07:28:19.287Z,98082.09
2019-02-07T07:31:02.631Z,98077.40
2019-02-07T07:33:52.964Z,98076.34
2019-02-07T07:36:43.594Z,98079.34
2019-02-07T07:39:32.914Z,98069.21
2019-02-07T07:42:30.676Z,98071.67
2019-02-07T07:45:16.384Z,98078.53
2019-02-07T07:48:20.085Z,98071.63
2019-02-07T07:51:20.697Z,98064.42
2019-02-07T07:54:09.772Z,98063.17
2019-02-07T07:57:05.108Z,98061.03
2019-02-07T07:59:54.582Z,98051.95
2019-02-07T08:02:52.592Z,98056.84
2019-02-07T08:05:34.632Z,98052.38
2019-02-07T08:08:27.060Z,98045.48
2019-02-07T08:11:07.144Z,98049.82
2019-02-07T08:13:57.112Z,98053.65
2019-02-07T08:16:47.906Z,98046.55
2019-02-07T08:19:45.746Z,98043.81
2019-02-07T08:22:26.111Z,98036.97
2019-02-07T08:25:26.977Z,98038.28
2019-02-07T08:28:26.658Z,98039.10
2019-02-07T08:31:19.137Z,98037.08
2019-02-07T08:34:06.334Z,98035.14
2019-02-07T08:36:56.264Z,98028.14
2019-02-07T08:39:50.909Z,98028.49
2019-02-07T08:42:40.404Z,98019.79
2019-02-07T08:45:25.943Z,98007.56
2019-02-07T08:48:17.579Z,98015.19
2019-02-07T08:51:17.273Z,98012.45
2019-02-07T08:54:01.164Z,98017.47
2019-02-07T08:56:59.069Z,98011.23
2019-02-07T08:59:52.035Z,98014.89
2019-02-07T09:02:51.548Z,98003.08
2019-02-07T09:05:42.094Z,98001.41
2019-02-07T09:08:30.844Z,98004.63
2019-02-07T09:11:21.033Z,98007.14
2019-02-07T09:14:18.694Z,98004.58
2019-02-07T09:17:14.554Z,97992.40
2019-02-07T09:20:09.624Z,97987.45
2019-02-07T09:22:58.575Z,97984.81
2019-02-07T09:25:50.174Z,97994.63
2019-02-07T09:28:56.873Z,97985.09
2019-02-07T09:31:51.410Z,97982.64
2019-02-07T09:35:01.179Z,97982.27
2019-02-07T09:38:04.642Z,97985.94
2019-02-07T09:41:05.778Z,97978.81
2019-02-07T09:43:55.736Z,97975.09
2019-02-07T09:46:59.392Z,97971.83
2019-02-07T09:49:40.038Z,97967.30
2019-02-07T09:52:19.959Z,97961.17
2019-02-07T09:55:11.555Z,97961.80
2019-02-07T09:57:57.360Z,97965.91
2019-02-07T10:00:48.981Z,97962.64
2019-02-07T10:03:55.695Z,97958.73
2019-02-07T10:06:50.391Z,97956.95
2019-02-07T10:09:57.146Z,97951.23
2019-02-07T10:12:47.351Z,97958.15
2019-02-07T10:15:38.592Z,97953.96
2019-02-07T10:18:42.372Z,97957.47
2019-02-07T10:21:33.099Z,97952.58
2019-02-07T10:24:27.777Z,97956.36
2019-02-07T10:27:14.456Z,97954.90
2019-02-07T10:30:06.015Z,97954.40
2019-02-07T10:32:49.680Z,97952.03
2019-02-07T10:35:40.016Z,97946.07
2019-02-07T10:38:24.768Z,97947.59
2019-02-07T10:41:10.755Z,97944.08
2019-02-07T10:44:14.287Z,97945.44
2019-02-07T10:46:58.837Z,97942.03
2019-02-07T10:49:58.894Z,97945.16
2019-02-07T10:52:41.731Z,97937.75
2019-02-07T10:55:38.126Z,97940.66
2019-02-07T10:58:22.354Z,97943.45
2019-02-07T11:01:32.119Z,97941.42
2019-02-07T11:04:38.698Z,97937.63
2019-02-07T11:07:28.793Z,97938.02
2019-02-07T11:10:38.337Z,97928.92
2019-02-07T11:13:38.769Z,97933.55
2019-02-07T11:16:36.359Z,97927.69
2019-02-07T11:19:26.625Z,97932.42
2019-02-07T11:22:17.106Z,97922.95
2019-02-07T11:25:07.629Z,97931.11
2019-02-07T11:28:14.034Z,97928.05
2019-02-07T11:31:11.857Z,97928.48
2019-02-07T11:34:03.423Z,97925.03
2019-02-07T11:37:10.427Z,97915.34
2019-02-07T11:39:54.573Z,97923.17
2019-02-07T11:42:43.213Z,97908.00
2019-02-07T11:45:28.827Z,97905.48
2019-02-07T11:48:23.503Z,97908.65
2019-02-07T11:51:13.757Z,97910.84
2019-02-07T11:54:04.156Z,97909.36
2019-02-07T11:56:58.416Z,97905.09
2019-02-07T11:59:49.999Z,97897.16
2019-02-07T12:02:44.604Z,97896.82
2019-02-07T12:05:34.774Z,97893.08
2019-02-07T12:08:33.391Z,97892.43
2019-02-07T12:11:23.528Z,97886.89
2019-02-07T12:14:18.149Z,97897.16
2019-02-07T12:17:16.054Z,97898.19
2019-02-07T12:20:07.645Z,97899.06
2019-02-07T12:23:09.285Z,97901.42
2019-02-07T12:26:16.108Z,97899.94
2019-02-07T12:29:06.660Z,97897.42
2019-02-07T12:32:04.451Z,97899.49
2019-02-07T12:34:58.618Z,97901.91
2019-02-07T12:37:50.244Z,97897.52
2019-02-07T12:40:41.844Z,97904.47
2019-02-07T12:43:32.331Z,97896.15
2019-02-07T12:46:23.140Z,97894.78
2019-02-07T12:49:13.694Z,97894.05
2019-02-07T12:52:17.475Z,97896.69
2019-02-07T12:55:28.248Z,97892.52
2019-02-07T12:58:28.907Z,97900.89
2019-02-07T13:01:12.792Z,97894.86
2019-02-07T13:04:22.717Z,97884.81
2019-02-07T13:07:06.886Z,97881.41
2019-02-07T13:09:57.542Z,97885.11
2019-02-07T13:12:49.134Z,97875.94
2019-02-07T13:15:39.435Z,97885.91
2019-02-07T13:18:34.063Z,97889.81
2019-02-07T13:21:24.529Z,97884.72
2019-02-07T13:24:25.425Z,97896.73
2019-02-07T13:27:15.661Z,97891.50
2019-02-07T13:30:07.272Z,97889.86
2019-02-07T13:33:01.743Z,97887.98
2019-02-07T13:36:00.468Z,97887.59
2019-02-07T13:39:04.602Z,97881.59
2019-02-07T13:42:05.132Z,97887.41
2019-02-07T13:44:46.276Z,97870.69
2019-02-07T13:47:40.697Z,97877.41
2019-02-07T13:50:32.549Z,97873.69
2019-02-07T13:53:42.111Z,97869.99
2019-02-07T13:56:32.519Z,97880.64
2019-02-07T13:59:16.689Z,97872.57
2019-02-07T14:02:08.331Z,97877.65
2019-02-07T14:05:00.026Z,97874.42
2019-02-07T14:07:43.582Z,97875.50
2019-02-07T14:10:27.477Z,97874.50
2019-02-07T14:13:35.667Z,97872.88
2019-02-07T14:16:33.201Z,97874.85
2019-02-07T14:19:18.761Z,97878.11
2019-02-07T14:22:22.815Z,97872.05
2019-02-07T14:25:20.291Z,97866.70
2019-02-07T14:28:10.579Z,97862.91
2019-02-07T14:31:08.488Z,97866.98
2019-02-07T14:33:50.086Z,97867.05
2019-02-07T14:36:47.642Z,97879.27
2019-02-07T14:39:38.329Z,97887.74
2019-02-07T14:42:29.877Z,97886.88
2019-02-07T14:45:31.527Z,97883.23
2019-02-07T14:48:04.069Z,97873.63
2019-02-07T14:50:36.064Z,97886.77
2019-02-07T14:53:08.447Z,97888.80
2019-02-07T14:55:40.471Z,97887.28
2019-02-07T14:58:12.554Z,97881.72
2019-02-07T15:00:44.584Z,97886.92
2019-02-07T15:03:16.654Z,97881.87
2019-02-07T15:05:49.255Z,97886.79
2019-02-07T15:08:21.276Z,97877.91
2019-02-07T15:10:53.556Z,97882.99
2019-02-07T15:13:25.616Z,97884.86
2019-02-07T15:15:58.067Z,97885.39
2019-02-07T15:18:30.073Z,97880.72
2019-02-07T15:21:02.092Z,97887.28
2019-02-07T15:23:34.206Z,97886.52
2019-02-07T15:26:06.727Z,97897.65
2019-02-07T15:28:38.745Z,97892.87
2019-02-07T15:31:12.605Z,97893.75
2019-02-07T15:33:44.704Z,97900.45
2019-02-07T15:36:16.733Z,97899.43
2019-02-07T15:38:48.966Z,97908.03
2019-02-07T15:41:21.542Z,97906.14
2019-02-07T15:43:53.558Z,97906.14
2019-02-07T15:46:27.408Z,97911.84
2019-02-07T15:48:59.517Z,97910.58
2019-02-07T15:51:31.584Z,97913.84
2019-02-07T15:54:04.217Z,97911.06
2019-02-07T15:56:36.270Z,97917.14
2019-02-07T15:59:37.018Z,97909.66
2019-02-07T16:02:29.257Z,97911.95
2019-02-07T16:05:04.295Z,97918.38
2019-02-07T16:07:36.540Z,97926.88
2019-02-07T16:10:13.073Z,97929.55
2019-02-07T16:12:46.301Z,97930.52
2019-02-07T16:15:18.282Z,97935.95
2019-02-07T16:17:50.346Z,97936.97
2019-02-07T16:20:22.474Z,97942.69
2019-02-07T16:22:54.861Z,97945.71
2019-02-07T16:25:28.059Z,97945.22
2019-02-07T16:28:00.110Z,97939.14
2019-02-07T16:30:32.154Z,97924.45
2019-02-07T16:33:05.483Z,97918.66
2019-02-07T16:35:38.264Z,97931.78
2019-02-07T16:38:10.467Z,97932.41
2019-02-07T16:40:42.823Z,97942.14
2019-02-07T16:43:18.083Z,97941.63
2019-02-07T16:45:52.155Z,97938.84
2019-02-07T16:48:24.380Z,97945.28
2019-02-07T16:51:00.172Z,97950.72
2019-02-07T16:53:30.616Z,97948.19
2019-02-07T16:56:02.890Z,97952.23
2019-02-07T16:58:34.920Z,97953.24
2019-02-07T17:01:08.189Z,97950.72
2019-02-07T17:03:40.241Z,97946.17
2019-02-07T17:06:12.386Z,97953.27
2019-02-07T17:08:44.728Z,97956.28
2019-02-07T17:11:16.845Z,97947.33
2019-02-07T17:13:48.890Z,97952.38
2019-02-07T17:16:21.167Z,97948.95
2019-02-07T17:18:53.322Z,97959.85
2019-02-07T17:21:25.587Z,97951.39
2019-02-07T17:23:57.661Z,97943.28
2019-02-07T17:26:31.632Z,97951.87
2019-02-07T17:29:03.698Z,97962.75
2019-02-07T17:31:35.750Z,97966.37
2019-02-07T17:34:07.921Z,97983.34
2019-02-07T17:36:40.051Z,97983.09
2019-02-07T17:39:12.024Z,97980.28
2019-02-07T17:41:44.240Z,97985.61
2019-02-07T17:44:16.285Z,97998.63
2019-02-07T17:46:48.344Z,98003.54
2019-02-07T17:49:20.501Z,98007.22
2019-02-07T17:51:52.607Z,98000.48
2019-02-07T17:54:24.652Z,98012.74
2019-02-07T17:56:56.736Z,98017.60
2019-02-07T17:59:28.925Z,98017.46
2019-02-07T18:02:00.999Z,98016.66
2019-02-07T18:04:33.006Z,98033.20
2019-02-07T18:07:05.153Z,98036.72
2019-02-07T18:09:37.146Z,98040.25
2019-02-07T18:12:09.214Z,98038.10
2019-02-07T18:14:41.309Z,98040.25
2019-02-07T18:17:13.375Z,98040.13
2019-02-07T18:19:45.468Z,98039.22
2019-02-07T18:22:17.612Z,98046.98
2019-02-07T18:24:50.375Z,98048.20
2019-02-07T18:27:22.505Z,98045.87
2019-02-07T18:29:54.562Z,98049.27
2019-02-07T18:32:26.644Z,98051.68
2019-02-07T18:34:58.795Z,98053.94
2019-02-07T18:37:30.961Z,98058.22
2019-02-07T18:40:04.351Z,98060.24
2019-02-07T18:42:36.409Z,98064.91
2019-02-07T18:45:09.274Z,98071.06
2019-02-07T18:47:41.745Z,98061.85
2019-02-07T18:50:17.128Z,98076.66
2019-02-07T18:52:49.270Z,98079.91
2019-02-07T18:55:21.342Z,98092.73
2019-02-07T18:57:53.445Z,98096.03
2019-02-07T19:00:27.858Z,98095.72
2019-02-07T19:03:00.158Z,98101.91
2019-02-07T19:05:32.188Z,98096.80
2019-02-07T19:08:04.304Z,98109.55
2019-02-07T19:10:36.449Z,98115.56
2019-02-07T19:13:08.623Z,98126.33
2019-02-07T19:15:46.693Z,98133.21
2019-02-07T19:18:18.822Z,98133.25
2019-02-07T19:20:50.857Z,98132.05
2019-02-07T19:23:23.348Z,98127.87
2019-02-07T19:25:55.479Z,98130.17
2019-02-07T19:28:27.545Z,98139.22
2019-02-07T19:30:59.627Z,98155.27
2019-02-07T19:33:31.699Z,98163.87
2019-02-07T19:36:04.189Z,98161.47
2019-02-07T19:38:36.254Z,98163.87
2019-02-07T19:41:08.424Z,98155.92
2019-02-07T19:43:40.459Z,98162.23
2019-02-07T19:46:12.480Z,98169.80
2019-02-07T19:48:45.011Z,98163.94
2019-02-07T19:51:17.120Z,98164.37
2019-02-07T19:53:49.221Z,98168.03
2019-02-07T19:56:21.311Z,98169.35
2019-02-07T19:58:53.374Z,98168.84
2019-02-07T20:01:25.774Z,98173.98
2019-02-07T20:03:57.951Z,98175.46
2019-02-07T20:06:30.084Z,98183.69
2019-02-07T20:09:03.047Z,98179.31
2019-02-07T20:11:38.145Z,98179.91
2019-02-07T20:14:10.240Z,98177.25
2019-02-07T20:16:42.330Z,98176.53
2019-02-07T20:19:14.461Z,98179.05
2019-02-07T20:21:46.510Z,98169.76
2019-02-07T20:24:18.531Z,98179.34
2019-02-07T20:26:50.891Z,98181.41
2019-02-07T20:29:22.909Z,98185.06
2019-02-07T20:31:54.967Z,98176.08
2019-02-07T20:34:29.881Z,98174.31
2019-02-07T20:37:04.977Z,98180.62
2019-02-07T20:39:37.337Z,98180.67
2019-02-07T20:42:09.422Z,98180.64
2019-02-07T20:44:41.496Z,98179.30
2019-02-07T20:47:13.558Z,98183.02
2019-02-07T20:49:45.705Z,98189.02
2019-02-07T20:52:17.788Z,98199.27
2019-02-07T20:54:49.860Z,98210.37
2019-02-07T20:57:21.888Z,98208.02
2019-02-07T20:59:53.936Z,98212.22
2019-02-07T21:02:25.995Z,98213.48
2019-02-07T21:04:58.018Z,98212.38
2019-02-07T21:07:30.068Z,98209.61
2019-02-07T21:10:02.148Z,98211.33
2019-02-07T21:12:34.158Z,98212.75
2019-02-07T21:15:08.881Z,98212.13
2019-02-07T21:17:40.943Z,98219.55
2019-02-07T21:20:18.061Z,98226.64
2019-02-07T21:22:50.715Z,98232.80
2019-02-07T21:25:25.311Z,98226.34
2019-02-07T21:27:58.426Z,98236.41
2019-02-07T21:30:31.099Z,98238.63
2019-02-07T21:33:03.239Z,98245.88
2019-02-07T21:35:35.287Z,98251.70
2019-02-07T21:38:07.314Z,98245.20
2019-02-07T21:40:39.377Z,98251.70
2019-02-07T21:43:14.388Z,98256.00
2019-02-07T21:45:46.422Z,98258.14
2019-02-07T21:48:18.439Z,98266.58
2019-02-07T21:50:50.501Z,98275.59
2019-02-07T21:53:22.555Z,98285.63
2019-02-07T21:55:54.582Z,98286.88
2019-02-07T21:58:26.579Z,98282.69
2019-02-07T22:00:58.673Z,98284.83
2019-02-07T22:03:30.706Z,98285.58
2019-02-07T22:06:02.731Z,98287.95
2019-02-07T22:08:34.770Z,98285.81
2019-02-07T22:11:06.796Z,98288.49
2019-02-07T22:13:38.794Z,98292.42
2019-02-07T22:16:10.814Z,98303.73
2019-02-07T22:18:42.845Z,98300.77
2019-02-07T22:21:14.946Z,98308.23
2019-02-07T22:23:46.922Z,98319.63
2019-02-07T22:26:18.972Z,98313.32
2019-02-07T22:28:50.968Z,98323.28
2019-02-07T22:31:22.976Z,98325.55
2019-02-07T22:33:55.470Z,98332.91
2019-02-07T22:36:27.513Z,98333.50
2019-02-07T22:38:59.533Z,98335.61
2019-02-07T22:41:31.492Z,98332.77
2019-02-07T22:44:04.390Z,98332.73
2019-02-07T22:46:36.797Z,98329.97
2019-02-07T22:49:08.809Z,98326.81
2019-02-07T22:51:40.893Z,98329.55
2019-02-07T22:54:12.840Z,98330.80
2019-02-07T22:56:45.449Z,98330.30
2019-02-07T22:59:18.840Z,98329.68
2019-02-07T23:01:53.108Z,98330.51
2019-02-07T23:04:26.263Z,98331.68
2019-02-07T23:06:58.284Z,98330.59
2019-02-07T23:09:30.266Z,98338.48
2019-02-07T23:12:02.243Z,98349.34
2019-02-07T23:14:34.264Z,98351.39
2019-02-07T23:17:06.337Z,98353.33
2019-02-07T23:19:38.345Z,98356.53
2019-02-07T23:22:10.361Z,98349.06
2019-02-07T23:24:42.386Z,98346.85
2019-02-07T23:27:14.359Z,98348.46
2019-02-07T23:29:46.392Z,98352.45
2019-02-07T23:32:18.350Z,98351.09
2019-02-07T23:34:50.407Z,98347.11
2019-02-07T23:37:22.401Z,98353.54
2019-02-07T23:39:54.376Z,98352.86
2019-02-07T23:42:26.380Z,98360.21
2019-02-07T23:44:58.366Z,98354.70
2019-02-07T23:47:30.349Z,98355.17
2019-02-07T23:50:02.382Z,98355.41
2019-02-07T23:52:34.400Z,98349.00
2019-02-07T23:55:06.429Z,98345.69
2019-02-07T23:57:38.432Z,98347.56
